Portada
METAR-TAF:

METAR-TAF

Aeroports :

Matagami, Quebec, Canadà

latitud: 49-46N, longitud: 077-49W, altitud: 281 m

Observació

L'informe es va fer fa 17 minuts, a les 16:53 UTC
Vent 8 kt del Nord/Nord-Est, variant entre Nord i Est/Nord-Est
Temperatura -8°C
Humitat 92%
Pressió 996 hPa
Visibilitat: 0.8 km
neu

METAR: CYNM 271653Z AUTO 03008KT 360V070 1/2SM SN VV010 M08/M09 A2941 RMK SLP983

Hora: 12:10 (17:10 UTC)


TAF: manca

Observacions i pronòstics meteorològics de més de 4000 aeroports (METAR i TAF).

Les estacions disponibles són els punts grocs i vermells al mapa.

Posi el ratolí al punt desitjat per veure el nom de l'estació.

Feu clic per veure les observacions i els pronòstics meteorològics.

Per canviar el mapa: feu clic els botons verds amb una creu de color negre per apropar; al botó verd amb un guió per allunyar la imatge; o en les fletxes verdes per a mapes adjacents.


METAR-TAF: